sensor_id;sensor_type;location;lat;lon;timestamp;pressure;altitude;pressure_sealevel;temperature;humidity
21300;BME280;10809;49.476;11.016;2022-11-20T00:00:09;97840.53;;;0.88;82.75
21300;BME280;10809;49.476;11.016;2022-11-20T00:02:39;97831.88;;;0.87;82.55
21300;BME280;10809;49.476;11.016;2022-11-20T00:05:09;97831.88;;;0.87;82.83
21300;BME280;10809;49.476;11.016;2022-11-20T00:07:40;97837.94;;;0.88;82.35
21300;BME280;10809;49.476;11.016;2022-11-20T00:10:11;97831.88;;;0.87;82.56
21300;BME280;10809;49.476;11.016;2022-11-20T00:12:41;97833.63;;;0.87;82.63
21300;BME280;10809;49.476;11.016;2022-11-20T00:15:11;97840.53;;;0.88;82.52
21300;BME280;10809;49.476;11.016;2022-11-20T00:17:42;97832.72;;;0.88;82.60
21300;BME280;10809;49.476;11.016;2022-11-20T00:20:12;97834.44;;;0.89;82.23
21300;BME280;10809;49.476;11.016;2022-11-20T00:22:43;97831.84;;;0.89;82.61
21300;BME280;10809;49.476;11.016;2022-11-20T00:25:13;97830.94;;;0.90;82.37
21300;BME280;10809;49.476;11.016;2022-11-20T00:27:44;97820.50;;;0.90;82.80
21300;BME280;10809;49.476;11.016;2022-11-20T00:30:14;97822.22;;;0.91;82.98
21300;BME280;10809;49.476;11.016;2022-11-20T00:32:44;97830.84;;;0.93;82.87
21300;BME280;10809;49.476;11.016;2022-11-20T00:35:15;97834.38;;;0.92;82.58
21300;BME280;10809;49.476;11.016;2022-11-20T00:37:45;97824.78;;;0.92;82.55
21300;BME280;10809;49.476;11.016;2022-11-20T00:40:15;97829.94;;;0.94;82.65
21300;BME280;10809;49.476;11.016;2022-11-20T00:42:46;97834.34;;;0.93;82.58
21300;BME280;10809;49.476;11.016;2022-11-20T00:45:16;97843.84;;;0.94;82.63
21300;BME280;10809;49.476;11.016;2022-11-20T00:47:47;97842.94;;;0.95;82.71
21300;BME280;10809;49.476;11.016;2022-11-20T00:50:17;97843.81;;;0.96;82.56
21300;BME280;10809;49.476;11.016;2022-11-20T00:52:47;97837.69;;;0.97;82.82
21300;BME280;10809;49.476;11.016;2022-11-20T00:55:18;97822.94;;;0.97;82.93
21300;BME280;10809;49.476;11.016;2022-11-20T00:57:48;97819.41;;;0.98;82.66
21300;BME280;10809;49.476;11.016;2022-11-20T01:00:18;97830.69;;;0.99;82.50
21300;BME280;10809;49.476;11.016;2022-11-20T01:02:49;97828.09;;;0.99;82.99
21300;BME280;10809;49.476;11.016;2022-11-20T01:05:19;97828.06;;;1.00;82.50
21300;BME280;10809;49.476;11.016;2022-11-20T01:07:49;97821.09;;;1.01;82.49
21300;BME280;10809;49.476;11.016;2022-11-20T01:10:20;97828.94;;;1.01;82.74
21300;BME280;10809;49.476;11.016;2022-11-20T01:12:50;97834.13;;;1.01;82.40
21300;BME280;10809;49.476;11.016;2022-11-20T01:15:40;97844.53;;;1.02;82.57
21300;BME280;10809;49.476;11.016;2022-11-20T01:18:11;97835.84;;;1.02;82.84
21300;BME280;10809;49.476;11.016;2022-11-20T01:20:41;97843.63;;;1.03;82.77
21300;BME280;10809;49.476;11.016;2022-11-20T01:23:12;97845.31;;;1.04;83.08
21300;BME280;10809;49.476;11.016;2022-11-20T01:25:42;97846.19;;;1.05;82.77
21300;BME280;10809;49.476;11.016;2022-11-20T01:28:12;97852.25;;;1.05;82.50
21300;BME280;10809;49.476;11.016;2022-11-20T01:30:43;97845.28;;;1.06;82.63
21300;BME280;10809;49.476;11.016;2022-11-20T01:33:13;97840.03;;;1.07;82.33
21300;BME280;10809;49.476;11.016;2022-11-20T01:35:43;97834.81;;;1.07;82.61
21300;BME280;10809;49.476;11.016;2022-11-20T01:38:15;97835.69;;;1.08;82.75
21300;BME280;10809;49.476;11.016;2022-11-20T01:40:53;97831.34;;;1.08;82.53
21300;BME280;10809;49.476;11.016;2022-11-20T01:43:24;97829.56;;;1.09;82.54
21300;BME280;10809;49.476;11.016;2022-11-20T01:48:57;97821.75;;;1.09;82.62
21300;BME280;10809;49.476;11.016;2022-11-20T01:51:33;97827.78;;;1.11;82.81
21300;BME280;10809;49.476;11.016;2022-11-20T01:54:10;97820.88;;;1.10;82.65
21300;BME280;10809;49.476;11.016;2022-11-20T01:56:44;97822.59;;;1.09;82.46
21300;BME280;10809;49.476;11.016;2022-11-20T01:59:17;97823.47;;;1.10;82.51
21300;BME280;10809;49.476;11.016;2022-11-20T02:01:48;97824.31;;;1.10;82.42
21300;BME280;10809;49.476;11.016;2022-11-20T02:04:25;97821.75;;;1.09;82.52
21300;BME280;10809;49.476;11.016;2022-11-20T02:07:00;97817.34;;;1.11;82.67
21300;BME280;10809;49.476;11.016;2022-11-20T02:09:31;97815.63;;;1.11;82.70
21300;BME280;10809;49.476;11.016;2022-11-20T02:12:02;97806.94;;;1.11;82.84
21300;BME280;10809;49.476;11.016;2022-11-20T02:14:33;97813.88;;;1.12;82.49
21300;BME280;10809;49.476;11.016;2022-11-20T02:17:03;97818.22;;;1.11;82.57
21300;BME280;10809;49.476;11.016;2022-11-20T02:19:34;97825.13;;;1.12;82.57
21300;BME280;10809;49.476;11.016;2022-11-20T02:22:43;97824.31;;;1.12;82.39
21300;BME280;10809;49.476;11.016;2022-11-20T02:25:15;97819.09;;;1.12;82.51
21300;BME280;10809;49.476;11.016;2022-11-20T02:27:46;97826.91;;;1.12;82.28
21300;BME280;10809;49.476;11.016;2022-11-20T02:30:17;97824.31;;;1.12;82.25
21300;BME280;10809;49.476;11.016;2022-11-20T02:32:47;97819.09;;;1.12;82.60
21300;BME280;10809;49.476;11.016;2022-11-20T02:37:51;97819.91;;;1.12;82.13
21300;BME280;10809;49.476;11.016;2022-11-20T02:40:23;97812.97;;;1.13;82.60
21300;BME280;10809;49.476;11.016;2022-11-20T02:42:55;97800.84;;;1.12;82.50
21300;BME280;10809;49.476;11.016;2022-11-20T02:45:26;97809.53;;;1.11;82.27
21300;BME280;10809;49.476;11.016;2022-11-20T02:47:56;97810.41;;;1.11;82.66
21300;BME280;10809;49.476;11.016;2022-11-20T02:50:27;97802.59;;;1.11;82.64
21300;BME280;10809;49.476;11.016;2022-11-20T02:52:57;97815.66;;;1.10;82.24
21300;BME280;10809;49.476;11.016;2022-11-20T02:55:27;97813.06;;;1.10;82.58
21300;BME280;10809;49.476;11.016;2022-11-20T02:57:58;97809.63;;;1.08;82.52
21300;BME280;10809;49.476;11.016;2022-11-20T03:00:28;97810.47;;;1.08;82.23
21300;BME280;10809;49.476;11.016;2022-11-20T03:02:58;97806.16;;;1.07;82.24
21300;BME280;10809;49.476;11.016;2022-11-20T03:05:29;97806.19;;;1.06;82.24
21300;BME280;10809;49.476;11.016;2022-11-20T03:07:59;97804.47;;;1.05;82.29
21300;BME280;10809;49.476;11.016;2022-11-20T03:10:29;97800.19;;;1.04;82.42
21300;BME280;10809;49.476;11.016;2022-11-20T03:13:00;97800.22;;;1.02;82.38
21300;BME280;10809;49.476;11.016;2022-11-20T03:15:30;97801.09;;;1.01;82.49
21300;BME280;10809;49.476;11.016;2022-11-20T03:18:01;97800.28;;;0.99;82.36
21300;BME280;10809;49.476;11.016;2022-11-20T03:20:33;97802.91;;;0.99;82.06
21300;BME280;10809;49.476;11.016;2022-11-20T03:23:03;97806.41;;;0.97;82.08
21300;BME280;10809;49.476;11.016;2022-11-20T03:25:34;97803.03;;;0.95;81.80
21300;BME280;10809;49.476;11.016;2022-11-20T03:28:05;97796.06;;;0.94;82.01
21300;BME280;10809;49.476;11.016;2022-11-20T03:30:35;97797.88;;;0.92;82.22
21300;BME280;10809;49.476;11.016;2022-11-20T03:33:06;97799.63;;;0.91;82.42
21300;BME280;10809;49.476;11.016;2022-11-20T03:35:36;97796.25;;;0.88;82.18
21300;BME280;10809;49.476;11.016;2022-11-20T03:38:07;97795.38;;;0.89;82.20
21300;BME280;10809;49.476;11.016;2022-11-20T03:40:37;97796.28;;;0.86;82.26
21300;BME280;10809;49.476;11.016;2022-11-20T03:43:09;97786.72;;;0.87;81.91
21300;BME280;10809;49.476;11.016;2022-11-20T03:45:39;97780.69;;;0.85;82.63
21300;BME280;10809;49.476;11.016;2022-11-20T03:48:10;97787.63;;;0.86;82.61
21300;BME280;10809;49.476;11.016;2022-11-20T03:50:40;97787.63;;;0.86;82.57
21300;BME280;10809;49.476;11.016;2022-11-20T03:53:10;97785.03;;;0.86;82.44
21300;BME280;10809;49.476;11.016;2022-11-20T03:55:41;97787.59;;;0.87;82.69
21300;BME280;10809;49.476;11.016;2022-11-20T03:58:11;97775.38;;;0.88;82.65
21300;BME280;10809;49.476;11.016;2022-11-20T04:00:43;97777.13;;;0.89;82.58
21300;BME280;10809;49.476;11.016;2022-11-20T04:03:13;97777.97;;;0.89;82.52
21300;BME280;10809;49.476;11.016;2022-11-20T04:05:44;97781.44;;;0.90;82.32
21300;BME280;10809;49.476;11.016;2022-11-20T04:08:14;97772.72;;;0.91;82.77
21300;BME280;10809;49.476;11.016;2022-11-20T04:10:44;97777.03;;;0.92;82.30
21300;BME280;10809;49.476;11.016;2022-11-20T04:13:15;97777.03;;;0.92;82.44
21300;BME280;10809;49.476;11.016;2022-11-20T04:15:45;97778.75;;;0.93;82.52
21300;BME280;10809;49.476;11.016;2022-11-20T04:18:15;97782.25;;;0.92;82.37
21300;BME280;10809;49.476;11.016;2022-11-20T04:20:46;97778.75;;;0.93;82.39
21300;BME280;10809;49.476;11.016;2022-11-20T04:23:16;97776.19;;;0.91;82.53
21300;BME280;10809;49.476;11.016;2022-11-20T04:25:47;97768.34;;;0.91;82.41
21300;BME280;10809;49.476;11.016;2022-11-20T04:28:17;97770.97;;;0.91;82.73
21300;BME280;10809;49.476;11.016;2022-11-20T04:30:47;97770.97;;;0.91;82.42
21300;BME280;10809;49.476;11.016;2022-11-20T04:33:18;97769.22;;;0.92;82.34
21300;BME280;10809;49.476;11.016;2022-11-20T04:35:48;97764.84;;;0.92;82.56
21300;BME280;10809;49.476;11.016;2022-11-20T04:38:18;97767.44;;;0.92;82.37
21300;BME280;10809;49.476;11.016;2022-11-20T04:40:49;97769.19;;;0.93;82.21
21300;BME280;10809;49.476;11.016;2022-11-20T04:43:19;97764.00;;;0.92;82.46
21300;BME280;10809;49.476;11.016;2022-11-20T04:45:53;97773.53;;;0.93;82.38
21300;BME280;10809;49.476;11.016;2022-11-20T04:48:28;97766.59;;;0.93;82.30
21300;BME280;10809;49.476;11.016;2022-11-20T04:51:02;97761.38;;;0.93;82.41
21300;BME280;10809;49.476;11.016;2022-11-20T04:53:33;97768.31;;;0.93;82.32
21300;BME280;10809;49.476;11.016;2022-11-20T04:56:07;97764.81;;;0.94;82.55
21300;BME280;10809;49.476;11.016;2022-11-20T04:58:38;97751.75;;;0.95;82.32
21300;BME280;10809;49.476;11.016;2022-11-20T05:01:12;97762.16;;;0.95;82.27
21300;BME280;10809;49.476;11.016;2022-11-20T05:03:44;97757.81;;;0.96;82.65
21300;BME280;10809;49.476;11.016;2022-11-20T05:06:16;97763.03;;;0.96;82.54
21300;BME280;10809;49.476;11.016;2022-11-20T05:08:49;97761.31;;;0.95;82.60
21300;BME280;10809;49.476;11.016;2022-11-20T05:11:21;97768.25;;;0.96;82.38
21300;BME280;10809;49.476;11.016;2022-11-20T05:13:51;97769.09;;;0.96;82.17
21300;BME280;10809;49.476;11.016;2022-11-20T05:16:23;97760.41;;;0.96;82.23
21300;BME280;10809;49.476;11.016;2022-11-20T05:18:54;97766.50;;;0.96;82.23
21300;BME280;10809;49.476;11.016;2022-11-20T05:21:24;97758.69;;;0.96;82.44
21300;BME280;10809;49.476;11.016;2022-11-20T05:23:55;97766.50;;;0.96;82.31
21300;BME280;10809;49.476;11.016;2022-11-20T05:26:25;97762.19;;;0.94;82.27
21300;BME280;10809;49.476;11.016;2022-11-20T05:28:55;97758.72;;;0.95;82.36
21300;BME280;10809;49.476;11.016;2022-11-20T05:31:27;97762.16;;;0.95;82.23
21300;BME280;10809;49.476;11.016;2022-11-20T05:33:57;97756.94;;;0.95;82.62
21300;BME280;10809;49.476;11.016;2022-11-20T05:36:27;97748.31;;;0.95;82.57
21300;BME280;10809;49.476;11.016;2022-11-20T05:38:58;97745.69;;;0.95;82.29
21300;BME280;10809;49.476;11.016;2022-11-20T05:41:28;97743.03;;;0.96;82.26
21300;BME280;10809;49.476;11.016;2022-11-20T05:43:59;97739.56;;;0.96;82.41
21300;BME280;10809;49.476;11.016;2022-11-20T05:46:30;97728.25;;;0.97;82.22
21300;BME280;10809;49.476;11.016;2022-11-20T05:49:00;97733.47;;;0.97;82.22
21300;BME280;10809;49.476;11.016;2022-11-20T05:51:30;97724.81;;;0.96;82.06
21300;BME280;10809;49.476;11.016;2022-11-20T05:54:01;97725.63;;;0.97;82.23
21300;BME280;10809;49.476;11.016;2022-11-20T05:56:31;97731.72;;;0.97;82.61
21300;BME280;10809;49.476;11.016;2022-11-20T05:59:02;97733.47;;;0.97;82.36
21300;BME280;10809;49.476;11.016;2022-11-20T06:01:33;97735.19;;;0.98;82.26
21300;BME280;10809;49.476;11.016;2022-11-20T06:04:03;97737.78;;;0.98;82.32
21300;BME280;10809;49.476;11.016;2022-11-20T06:06:34;97736.03;;;0.98;82.50
21300;BME280;10809;49.476;11.016;2022-11-20T06:09:04;97729.06;;;0.99;82.76
21300;BME280;10809;49.476;11.016;2022-11-20T06:11:34;97736.88;;;0.99;82.44
21300;BME280;10809;49.476;11.016;2022-11-20T06:14:05;97733.38;;;1.00;82.64
21300;BME280;10809;49.476;11.016;2022-11-20T06:16:35;97734.25;;;1.00;82.59
21300;BME280;10809;49.476;11.016;2022-11-20T06:19:06;97729.03;;;1.00;82.76
21300;BME280;10809;49.476;11.016;2022-11-20T06:21:36;97731.63;;;1.00;82.66
21300;BME280;10809;49.476;11.016;2022-11-20T06:24:09;97733.34;;;1.01;82.59
21300;BME280;10809;49.476;11.016;2022-11-20T06:26:39;97731.59;;;1.02;82.85
21300;BME280;10809;49.476;11.016;2022-11-20T06:29:09;97739.41;;;1.02;82.41
21300;BME280;10809;49.476;11.016;2022-11-20T06:31:40;97740.28;;;1.02;82.75
21300;BME280;10809;49.476;11.016;2022-11-20T06:34:12;97743.72;;;1.03;82.56
21300;BME280;10809;49.476;11.016;2022-11-20T06:36:42;97730.63;;;1.04;82.64
21300;BME280;10809;49.476;11.016;2022-11-20T06:39:13;97736.72;;;1.05;82.27
21300;BME280;10809;49.476;11.016;2022-11-20T06:41:43;97730.63;;;1.04;82.36
21300;BME280;10809;49.476;11.016;2022-11-20T06:44:13;97741.94;;;1.05;82.47
21300;BME280;10809;49.476;11.016;2022-11-20T06:46:44;97748.00;;;1.05;82.46
21300;BME280;10809;49.476;11.016;2022-11-20T06:49:14;97757.53;;;1.06;82.95
21300;BME280;10809;49.476;11.016;2022-11-20T06:51:44;97754.88;;;1.08;82.50
21300;BME280;10809;49.476;11.016;2022-11-20T06:54:15;97755.78;;;1.07;82.87
21300;BME280;10809;49.476;11.016;2022-11-20T06:56:48;97757.50;;;1.08;82.83
21300;BME280;10809;49.476;11.016;2022-11-20T06:59:19;97752.31;;;1.06;82.67
21300;BME280;10809;49.476;11.016;2022-11-20T07:01:49;97757.50;;;1.08;82.41
21300;BME280;10809;49.476;11.016;2022-11-20T07:04:19;97757.50;;;1.08;83.00
21300;BME280;10809;49.476;11.016;2022-11-20T07:06:50;97759.22;;;1.07;82.60
21300;BME280;10809;49.476;11.016;2022-11-20T07:09:20;97757.50;;;1.08;82.49
21300;BME280;10809;49.476;11.016;2022-11-20T07:11:50;97767.91;;;1.08;82.26
21300;BME280;10809;49.476;11.016;2022-11-20T07:14:21;97762.69;;;1.08;82.81
21300;BME280;10809;49.476;11.016;2022-11-20T07:16:51;97753.13;;;1.08;82.75
21300;BME280;10809;49.476;11.016;2022-11-20T07:19:21;97757.50;;;1.08;82.54
21300;BME280;10809;49.476;11.016;2022-11-20T07:21:52;97763.56;;;1.08;82.52
21300;BME280;10809;49.476;11.016;2022-11-20T07:24:23;97767.91;;;1.08;82.80
21300;BME280;10809;49.476;11.016;2022-11-20T07:26:53;97770.47;;;1.09;82.88
21300;BME280;10809;49.476;11.016;2022-11-20T07:29:24;97768.75;;;1.10;82.72
21300;BME280;10809;49.476;11.016;2022-11-20T07:31:54;97762.66;;;1.09;82.75
21300;BME280;10809;49.476;11.016;2022-11-20T07:34:26;97761.75;;;1.10;82.96
21300;BME280;10809;49.476;11.016;2022-11-20T07:36:56;97757.41;;;1.11;82.83
21300;BME280;10809;49.476;11.016;2022-11-20T07:39:26;97769.56;;;1.12;83.04
21300;BME280;10809;49.476;11.016;2022-11-20T07:41:57;97766.06;;;1.13;82.88
21300;BME280;10809;49.476;11.016;2022-11-20T07:44:27;97764.31;;;1.13;82.56
21300;BME280;10809;49.476;11.016;2022-11-20T07:46:58;97763.41;;;1.14;83.14
21300;BME280;10809;49.476;11.016;2022-11-20T07:49:28;97769.44;;;1.16;82.88
21300;BME280;10809;49.476;11.016;2022-11-20T07:51:58;97767.66;;;1.17;83.00
21300;BME280;10809;49.476;11.016;2022-11-20T07:54:29;97772.00;;;1.18;83.03
21300;BME280;10809;49.476;11.016;2022-11-20T07:56:59;97764.09;;;1.21;83.51
21300;BME280;10809;49.476;11.016;2022-11-20T07:59:29;97771.88;;;1.22;83.45
21300;BME280;10809;49.476;11.016;2022-11-20T08:02:00;97767.44;;;1.24;83.39
21300;BME280;10809;49.476;11.016;2022-11-20T08:04:30;97778.72;;;1.26;82.98
21300;BME280;10809;49.476;11.016;2022-11-20T08:07:02;97769.97;;;1.27;83.74
21300;BME280;10809;49.476;11.016;2022-11-20T08:09:32;97775.09;;;1.30;83.09
21300;BME280;10809;49.476;11.016;2022-11-20T08:12:03;97773.38;;;1.31;83.10
21300;BME280;10809;49.476;11.016;2022-11-20T08:14:51;97772.47;;;1.32;83.03
21300;BME280;10809;49.476;11.016;2022-11-20T08:17:22;97770.72;;;1.32;83.20
21300;BME280;10809;49.476;11.016;2022-11-20T08:19:52;97770.69;;;1.34;83.06
21300;BME280;10809;49.476;11.016;2022-11-20T08:22:23;97771.53;;;1.34;83.23
21300;BME280;10809;49.476;11.016;2022-11-20T08:24:53;97780.19;;;1.35;83.15
21300;BME280;10809;49.476;11.016;2022-11-20T08:27:23;97774.94;;;1.36;83.00
21300;BME280;10809;49.476;11.016;2022-11-20T08:29:54;97774.06;;;1.37;83.02
21300;BME280;10809;49.476;11.016;2022-11-20T08:32:24;97767.94;;;1.38;83.20
21300;BME280;10809;49.476;11.016;2022-11-20T08:34:54;97767.06;;;1.38;83.63
21300;BME280;10809;49.476;11.016;2022-11-20T08:37:25;97762.69;;;1.40;83.11
21300;BME280;10809;49.476;11.016;2022-11-20T08:39:55;97759.13;;;1.42;83.26
21300;BME280;10809;49.476;11.016;2022-11-20T08:42:27;97759.13;;;1.42;83.14
21300;BME280;10809;49.476;11.016;2022-11-20T08:44:57;97759.06;;;1.44;83.38
21300;BME280;10809;49.476;11.016;2022-11-20T08:47:27;97761.63;;;1.45;83.45
21300;BME280;10809;49.476;11.016;2022-11-20T08:49:58;97759.84;;;1.47;83.29
21300;BME280;10809;49.476;11.016;2022-11-20T08:52:28;97757.16;;;1.50;83.29
21300;BME280;10809;49.476;11.016;2022-11-20T08:54:58;97761.47;;;1.51;83.86
21300;BME280;10809;49.476;11.016;2022-11-20T08:57:32;97759.69;;;1.53;83.57
21300;BME280;10809;49.476;11.016;2022-11-20T09:00:04;97763.94;;;1.56;83.51
21300;BME280;10809;49.476;11.016;2022-11-20T09:02:35;97768.28;;;1.57;83.41
21300;BME280;10809;49.476;11.016;2022-11-20T09:05:06;97761.28;;;1.57;83.22
21300;BME280;10809;49.476;11.016;2022-11-20T09:07:36;97754.28;;;1.59;83.34
21300;BME280;10809;49.476;11.016;2022-11-20T09:10:07;97755.16;;;1.60;83.51
21300;BME280;10809;49.476;11.016;2022-11-20T09:12:38;97760.38;;;1.60;83.20
21300;BME280;10809;49.476;11.016;2022-11-20T09:15:08;97749.03;;;1.61;83.32
21300;BME280;10809;49.476;11.016;2022-11-20T09:17:39;97751.59;;;1.62;83.43
21300;BME280;10809;49.476;11.016;2022-11-20T09:20:09;97747.22;;;1.63;83.05
21300;BME280;10809;49.476;11.016;2022-11-20T09:22:40;97748.94;;;1.64;83.38
21300;BME280;10809;49.476;11.016;2022-11-20T09:25:10;97735.06;;;1.63;83.17
21300;BME280;10809;49.476;11.016;2022-11-20T09:27:41;97741.09;;;1.64;83.42
21300;BME280;10809;49.476;11.016;2022-11-20T09:30:14;97741.97;;;1.64;83.27
21300;BME280;10809;49.476;11.016;2022-11-20T09:32:45;97741.94;;;1.66;83.59
21300;BME280;10809;49.476;11.016;2022-11-20T09:35:15;97739.28;;;1.67;83.42
21300;BME280;10809;49.476;11.016;2022-11-20T09:37:45;97730.53;;;1.68;83.71
21300;BME280;10809;49.476;11.016;2022-11-20T09:40:21;97737.44;;;1.71;83.71
21300;BME280;10809;49.476;11.016;2022-11-20T09:45:50;97750.38;;;1.74;83.72
21300;BME280;10809;49.476;11.016;2022-11-20T09:48:52;97746.88;;;1.75;83.43
21300;BME280;10809;49.476;11.016;2022-11-20T09:51:39;97745.06;;;1.77;83.47
21300;BME280;10809;49.476;11.016;2022-11-20T09:54:21;97751.13;;;1.77;83.74
21300;BME280;10809;49.476;11.016;2022-11-20T09:57:01;97745.03;;;1.78;83.01
21300;BME280;10809;49.476;11.016;2022-11-20T09:59:50;97747.59;;;1.80;83.36
21300;BME280;10809;49.476;11.016;2022-11-20T10:02:48;97744.06;;;1.81;83.22
21300;BME280;10809;49.476;11.016;2022-11-20T10:05:39;97748.44;;;1.80;83.29
21300;BME280;10809;49.476;11.016;2022-11-20T10:11:28;97746.59;;;1.84;83.83
21300;BME280;10809;49.476;11.016;2022-11-20T10:14:33;97732.59;;;1.86;83.76
21300;BME280;10809;49.476;11.016;2022-11-20T10:20:46;97725.53;;;1.90;83.68
21300;BME280;10809;49.476;11.016;2022-11-20T10:23:36;97725.47;;;1.91;84.27
21300;BME280;10809;49.476;11.016;2022-11-20T10:26:39;97721.06;;;1.93;83.99
21300;BME280;10809;49.476;11.016;2022-11-20T10:29:15;97724.47;;;1.95;83.41
21300;BME280;10809;49.476;11.016;2022-11-20T10:31:51;97726.19;;;1.96;83.83
21300;BME280;10809;49.476;11.016;2022-11-20T10:34:44;97731.41;;;1.96;83.51
21300;BME280;10809;49.476;11.016;2022-11-20T10:37:23;97725.34;;;1.96;83.55
21300;BME280;10809;49.476;11.016;2022-11-20T10:43:02;97712.28;;;1.96;83.94
21300;BME280;10809;49.476;11.016;2022-11-20T10:48:14;97707.03;;;1.97;84.05
21300;BME280;10809;49.476;11.016;2022-11-20T10:56:52;97699.84;;;2.04;83.74
21300;BME280;10809;49.476;11.016;2022-11-20T10:59:50;97694.59;;;2.05;83.85
21300;BME280;10809;49.476;11.016;2022-11-20T11:02:46;97690.09;;;2.09;84.19
21300;BME280;10809;49.476;11.016;2022-11-20T11:07:54;97696.00;;;2.15;84.62
21300;BME280;10809;49.476;11.016;2022-11-20T11:10:53;97692.44;;;2.18;83.82
21300;BME280;10809;49.476;11.016;2022-11-20T11:13:28;97700.19;;;2.21;83.62
21300;BME280;10809;49.476;11.016;2022-11-20T11:15:59;97691.44;;;2.22;83.78
21300;BME280;10809;49.476;11.016;2022-11-20T11:18:34;97728.00;;;2.22;83.53
21300;BME280;10809;49.476;11.016;2022-11-20T11:21:04;97755.03;;;2.21;83.38
21300;BME280;10809;49.476;11.016;2022-11-20T11:23:40;97762.00;;;2.20;82.77
21300;BME280;10809;49.476;11.016;2022-11-20T11:26:22;97757.81;;;2.15;82.46
21300;BME280;10809;49.476;11.016;2022-11-20T11:28:58;97723.16;;;2.10;82.75
21300;BME280;10809;49.476;11.016;2022-11-20T11:31:33;97719.78;;;2.06;82.84
21300;BME280;10809;49.476;11.016;2022-11-20T11:34:08;97727.72;;;2.03;83.22
21300;BME280;10809;49.476;11.016;2022-11-20T11:36:42;97721.66;;;2.01;83.33
21300;BME280;10809;49.476;11.016;2022-11-20T11:39:20;97721.66;;;2.01;83.46
21300;BME280;10809;49.476;11.016;2022-11-20T11:41:51;97718.19;;;2.02;83.66
21300;BME280;10809;49.476;11.016;2022-11-20T11:44:27;97711.13;;;2.04;83.82
21300;BME280;10809;49.476;11.016;2022-11-20T11:47:44;97717.06;;;2.09;83.80
21300;BME280;10809;49.476;11.016;2022-11-20T11:50:19;97716.09;;;2.13;83.96
21300;BME280;10809;49.476;11.016;2022-11-20T11:53:02;97703.78;;;2.17;83.98
21300;BME280;10809;49.476;11.016;2022-11-20T11:55:47;97702.84;;;2.19;84.19
21300;BME280;10809;49.476;11.016;2022-11-20T11:58:24;97702.75;;;2.22;83.84
21300;BME280;10809;49.476;11.016;2022-11-20T12:01:02;97707.91;;;2.24;84.17
21300;BME280;10809;49.476;11.016;2022-11-20T12:03:37;97703.38;;;2.29;84.25
21300;BME280;10809;49.476;11.016;2022-11-20T12:06:14;97709.38;;;2.32;85.04
21300;BME280;10809;49.476;11.016;2022-11-20T12:09:05;97710.09;;;2.37;84.30
21300;BME280;10809;49.476;11.016;2022-11-20T12:12:07;97707.31;;;2.42;84.60
21300;BME280;10809;49.476;11.016;2022-11-20T12:14:42;97709.81;;;2.45;84.56
21300;BME280;10809;49.476;11.016;2022-11-20T12:17:13;97709.72;;;2.48;84.12
21300;BME280;10809;49.476;11.016;2022-11-20T12:19:44;97712.25;;;2.51;84.14
21300;BME280;10809;49.476;11.016;2022-11-20T12:28:07;97716.44;;;2.55;83.87
21300;BME280;10809;49.476;11.016;2022-11-20T12:34:10;97711.13;;;2.58;83.62
21300;BME280;10809;49.476;11.016;2022-11-20T12:36:59;97707.59;;;2.59;84.14
21300;BME280;10809;49.476;11.016;2022-11-20T12:39:41;97691.84;;;2.61;84.47
21300;BME280;10809;49.476;11.016;2022-11-20T12:42:36;97690.91;;;2.63;84.49
21300;BME280;10809;49.476;11.016;2022-11-20T12:45:35;97691.69;;;2.67;84.26
21300;BME280;10809;49.476;11.016;2022-11-20T12:51:34;97692.28;;;2.73;83.99
21300;BME280;10809;49.476;11.016;2022-11-20T12:57:21;97687.84;;;2.77;83.48
21300;BME280;10809;49.476;11.016;2022-11-20T13:03:07;97681.63;;;2.79;84.00
21300;BME280;10809;49.476;11.016;2022-11-20T13:05:58;97673.78;;;2.79;83.36
21300;BME280;10809;49.476;11.016;2022-11-20T13:08:34;97676.41;;;2.79;84.20
21300;BME280;10809;49.476;11.016;2022-11-20T13:11:32;97673.84;;;2.78;83.73
21300;BME280;10809;49.476;11.016;2022-11-20T13:14:36;97679.94;;;2.78;83.51
21300;BME280;10809;49.476;11.016;2022-11-20T13:17:19;97685.16;;;2.78;83.98
21300;BME280;10809;49.476;11.016;2022-11-20T13:19:54;97685.16;;;2.78;83.78
21300;BME280;10809;49.476;11.016;2022-11-20T13:22:44;97679.00;;;2.79;83.44
21300;BME280;10809;49.476;11.016;2022-11-20T13:25:25;97677.31;;;2.78;83.64
21300;BME280;10809;49.476;11.016;2022-11-20T13:27:59;97680.84;;;2.77;83.44
21300;BME280;10809;49.476;11.016;2022-11-20T13:30:31;97685.16;;;2.78;83.57
21300;BME280;10809;49.476;11.016;2022-11-20T13:33:22;97683.47;;;2.77;83.10
21300;BME280;10809;49.476;11.016;2022-11-20T13:36:05;97683.47;;;2.77;83.67
21300;BME280;10809;49.476;11.016;2022-11-20T13:38:47;97680.00;;;2.77;83.53
21300;BME280;10809;49.476;11.016;2022-11-20T13:44:15;97679.94;;;2.78;83.95
21300;BME280;10809;49.476;11.016;2022-11-20T13:46:53;97687.78;;;2.78;83.49
21300;BME280;10809;49.476;11.016;2022-11-20T13:52:27;97699.09;;;2.79;83.87
21300;BME280;10809;49.476;11.016;2022-11-20T14:00:19;97692.13;;;2.78;82.91
21300;BME280;10809;49.476;11.016;2022-11-20T14:03:07;97693.06;;;2.77;83.21
21300;BME280;10809;49.476;11.016;2022-11-20T14:05:52;97678.28;;;2.76;83.62
21300;BME280;10809;49.476;11.016;2022-11-20T14:08:43;97679.19;;;2.75;83.39
21300;BME280;10809;49.476;11.016;2022-11-20T14:11:16;97675.72;;;2.74;83.66
21300;BME280;10809;49.476;11.016;2022-11-20T14:14:15;97679.19;;;2.75;83.90
21300;BME280;10809;49.476;11.016;2022-11-20T14:16:46;97675.72;;;2.74;83.74
21300;BME280;10809;49.476;11.016;2022-11-20T14:22:14;97680.97;;;2.74;83.58
21300;BME280;10809;49.476;11.016;2022-11-20T14:24:48;97689.56;;;2.76;83.93
21300;BME280;10809;49.476;11.016;2022-11-20T14:27:20;97681.75;;;2.76;84.08
21300;BME280;10809;49.476;11.016;2022-11-20T14:29:51;97684.34;;;2.76;83.60
21300;BME280;10809;49.476;11.016;2022-11-20T14:32:24;97693.91;;;2.77;83.81
21300;BME280;10809;49.476;11.016;2022-11-20T14:35:01;97693.06;;;2.77;83.60
21300;BME280;10809;49.476;11.016;2022-11-20T14:37:35;97693.00;;;2.78;83.66